地図

経路データ

SID SEASON NUMBER BASIN SUBBASIN NAME ISO_TIME NATURE LAT LON WMO_WIND WMO_PRES WMO_AGENCY TRACK_TYPE DIST2LAND LANDFALL IFLAG USA_AGENCY USA_ATCF_ID USA_LAT USA_LON USA_RECORD USA_STATUS USA_WIND USA_PRES USA_SSHS USA_R34_NE USA_R34_SE USA_R34_SW USA_R34_NW USA_R50_NE USA_R50_SE USA_R50_SW USA_R50_NW USA_R64_NE USA_R64_SE USA_R64_SW USA_R64_NW USA_POCI USA_ROCI USA_RMW USA_EYE TOKYO_LAT TOKYO_LON TOKYO_GRADE TOKYO_WIND TOKYO_PRES TOKYO_R50_DIR TOKYO_R50_LONG TOKYO_R50_SHORT TOKYO_R30_DIR TOKYO_R30_LONG TOKYO_R30_SHORT TOKYO_LAND CMA_LAT CMA_LON CMA_CAT CMA_WIND CMA_PRES HKO_LAT HKO_LON HKO_CAT HKO_WIND HKO_PRES NEWDELHI_LAT NEWDELHI_LON NEWDELHI_GRADE NEWDELHI_WIND NEWDELHI_PRES NEWDELHI_CI NEWDELHI_DP NEWDELHI_POCI REUNION_LAT REUNION_LON REUNION_TYPE REUNION_WIND REUNION_PRES REUNION_TNUM REUNION_CI REUNION_RMW REUNION_R34_NE REUNION_R34_SE REUNION_R34_SW REUNION_R34_NW REUNION_R50_NE REUNION_R50_SE REUNION_R50_SW REUNION_R50_NW REUNION_R64_NE REUNION_R64_SE REUNION_R64_SW REUNION_R64_NW BOM_LAT BOM_LON BOM_TYPE BOM_WIND BOM_PRES BOM_TNUM BOM_CI BOM_RMW BOM_R34_NE BOM_R34_SE BOM_R34_SW BOM_R34_NW BOM_R50_NE BOM_R50_SE BOM_R50_SW BOM_R50_NW BOM_R64_NE BOM_R64_SE BOM_R64_SW BOM_R64_NW BOM_ROCI BOM_POCI BOM_EYE BOM_POS_METHOD BOM_PRES_METHOD NADI_LAT NADI_LON NADI_CAT NADI_WIND NADI_PRES WELLINGTON_LAT WELLINGTON_LON WELLINGTON_WIND WELLINGTON_PRES DS824_LAT DS824_LON DS824_STAGE DS824_WIND DS824_PRES TD9636_LAT TD9636_LON TD9636_STAGE TD9636_WIND TD9636_PRES TD9635_LAT TD9635_LON TD9635_WIND TD9635_PRES TD9635_ROCI NEUMANN_LAT NEUMANN_LON NEUMANN_CLASS NEUMANN_WIND NEUMANN_PRES MLC_LAT MLC_LON MLC_CLASS MLC_WIND MLC_PRES USA_GUST BOM_GUST BOM_GUST_PER REUNION_GUST REUNION_GUST_PER USA_SEAHGT USA_SEARAD_NE USA_SEARAD_SE USA_SEARAD_SW USA_SEARAD_NW STORM_SPEED STORM_DIR
1927260N13129 1927 47 WP MM NOT_NAMED 1927-09-17 10:00:00 NR 13.4000 129.000 main 402 376 __________O___ -1 13.4000 129.000 7 9 294
1927260N13129 1927 47 WP MM NOT_NAMED 1927-09-17 12:00:00 NR 13.5171 128.729 main 376 346 __________P___ -1 13.5171 128.729 7 9 294
1927260N13129 1927 47 WP MM NOT_NAMED 1927-09-17 15:00:00 NR 13.6987 128.300 main 346 313 __________P___ -1 13.6987 128.300 7 10 293
1927260N13129 1927 47 WP MM NOT_NAMED 1927-09-17 18:00:00 NR 13.8960 127.810 main 313 280 __________P___ -1 13.8960 127.810 7 11 292
1927260N13129 1927 47 WP MM NOT_NAMED 1927-09-17 21:00:00 NR 14.1186 127.223 main 280 272 __________P___ -1 14.1186 127.223 7 13 291
1927260N13129 1927 47 WP MM NOT_NAMED 1927-09-17 22:00:00 NR 14.2000 127.000 main 272 233 __________O___ -1 14.2000 127.000 3 15 290
1927260N13129 1927 47 WP MM NOT_NAMED 1927-09-18 00:00:00 NR 14.3742 126.507 main 233 160 __________P___ -1 14.3742 126.507 3 16 289
1927260N13129 1927 47 WP MM NOT_NAMED 1927-09-18 03:00:00 NR 14.6542 125.667 main 166 109 __________P___ -1 14.6542 125.667 3 18 288
1927260N13129 1927 47 WP MM NOT_NAMED 1927-09-18 06:00:00 NR 14.9404 124.734 main 109 112 __________P___ -1 14.9404 124.734 3 19 287
1927260N13129 1927 47 WP MM NOT_NAMED 1927-09-18 09:00:00 NR 15.2144 123.740 main 141 134 __________P___ -1 15.2144 123.740 3 20 286
1927260N13129 1927 47 WP MM NOT_NAMED 1927-09-18 10:00:00 NR 15.3000 123.400 main 134 92 __________O___ -1 15.3000 123.400 4 21 283
1927260N13129 1927 47 WP MM NOT_NAMED 1927-09-18 12:00:00 NR 15.4518 122.677 main 92 0 __________P___ -1 15.4518 122.677 4 22 281
1927260N13129 1927 47 WP MM NOT_NAMED 1927-09-18 15:00:00 NR 15.6601 121.553 main 0 0 __________P___ -1 15.6601 121.553 4 22 281
1927260N13129 1927 47 WP MM NOT_NAMED 1927-09-18 18:00:00 NR 15.8524 120.459 main 0 0 __________P___ -1 15.8524 120.459 4 20 281
1927260N13129 1927 47 WP MM NOT_NAMED 1927-09-18 21:00:00 NR 16.0378 119.484 main 21 32 __________P___ -1 16.0378 119.484 4 19 282
1927260N13129 1927 47 WP MM NOT_NAMED 1927-09-18 22:00:00 NR 16.1000 119.200 main 54 54 __________O___ -1 16.1000 119.200 4 15 286
1927260N13129 1927 47 WP MM NOT_NAMED 1927-09-19 00:00:00 NR 16.2388 118.746 main 109 111 __________P___ -1 16.2388 118.746 4 12 290
1927260N13129 1927 47 WP MM NOT_NAMED 1927-09-19 03:00:00 NR 16.4492 118.204 main 166 169 __________P___ -1 16.4492 118.204 4 10 294
1927260N13129 1927 47 WP MM NOT_NAMED 1927-09-19 06:00:00 NR 16.6538 117.762 main 217 227 __________P___ -1 16.6538 117.762 4 9 296
1927260N13129 1927 47 WP MM NOT_NAMED 1927-09-19 09:00:00 NR 16.8425 117.346 main 271 274 __________P___ -1 16.8425 117.346 4 9 295
1927260N13129 1927 47 WP MM NOT_NAMED 1927-09-19 10:00:00 NR 16.9000 117.200 main 285 285 __________O___ -1 16.9000 117.200 4 10 289
1927260N13129 1927 47 WP MM NOT_NAMED 1927-09-19 12:00:00 NR 17.0079 116.855 main 318 328 __________P___ -1 17.0079 116.855 4 10 287
1927260N13129 1927 47 WP MM NOT_NAMED 1927-09-19 15:00:00 NR 17.1512 116.325 main 386 386 __________P___ -1 17.1512 116.325 4 11 284
1927260N13129 1927 47 WP MM NOT_NAMED 1927-09-19 18:00:00 NR 17.2725 115.776 main 440 450 __________P___ -1 17.2725 115.776 4 11 282
1927260N13129 1927 47 WP MM NOT_NAMED 1927-09-19 21:00:00 NR 17.3718 115.199 main 504 488 __________P___ -1 17.3718 115.199 4 11 280
1927260N13129 1927 47 WP MM NOT_NAMED 1927-09-19 22:00:00 NR 17.4000 115.000 main 488 446 __________O___ -1 17.4000 115.000 4 12 278
1927260N13129 1927 47 WP MM NOT_NAMED 1927-09-20 00:00:00 NR 17.4582 114.587 main 446 385 __________P___ -1 17.4582 114.587 4 12 277
1927260N13129 1927 47 WP MM NOT_NAMED 1927-09-20 03:00:00 NR 17.5269 113.942 main 385 324 __________P___ -1 17.5269 113.942 4 13 275
1927260N13129 1927 47 WP MM NOT_NAMED 1927-09-20 06:00:00 NR 17.5732 113.280 main 324 259 __________P___ -1 17.5732 113.280 4 13 273
1927260N13129 1927 47 WP MM NOT_NAMED 1927-09-20 09:00:00 NR 17.5970 112.618 main 259 241 __________P___ -1 17.5970 112.618 4 13 272
1927260N13129 1927 47 WP MM NOT_NAMED 1927-09-20 10:00:00 NR 17.6000 112.400 main 241 207 __________O___ -1 17.6000 112.400 4 12 270
1927260N13129 1927 47 WP MM NOT_NAMED 1927-09-20 12:00:00 NR 17.5990 111.970 main 207 155 __________P___ -1 17.5990 111.970 4 12 269
1927260N13129 1927 47 WP MM NOT_NAMED 1927-09-20 15:00:00 NR 17.5824 111.338 main 155 116 __________P___ -1 17.5824 111.338 4 12 268
1927260N13129 1927 47 WP MM NOT_NAMED 1927-09-20 18:00:00 NR 17.5524 110.717 main 116 89 __________P___ -1 17.5524 110.717 4 12 267
1927260N13129 1927 47 WP MM NOT_NAMED 1927-09-20 21:00:00 NR 17.5139 110.104 main 89 81 __________P___ -1 17.5139 110.104 4 12 266
1927260N13129 1927 47 WP MM NOT_NAMED 1927-09-20 22:00:00 NR 17.5000 109.900 main 81 __________O___ -1 17.5000 109.900 4 12 266

デジタル台風データ・検索

IBTrACS Databaseについて

本データベースは、米国NOAAが公開する1842年以降の世界の熱帯低気圧のベストトラックデータアーカイブInternational Best Track Archive for Climate Stewardship (IBTrACS)を、ウェブで閲覧しやすい形式に変換したものです。

最終更新日:2021-11-26